createdAt,value
2022-09-04T00:00:40.549Z,52.44
2022-09-04T00:05:41.295Z,52.76
2022-09-04T00:10:42.000Z,53.17
2022-09-04T00:15:42.739Z,53.60
2022-09-04T00:20:43.530Z,53.80
2022-09-04T00:25:44.224Z,53.90
2022-09-04T00:30:45.006Z,54.21
2022-09-04T00:35:45.686Z,54.31
2022-09-04T00:40:46.414Z,54.53
2022-09-04T00:45:47.192Z,54.94
2022-09-04T00:50:47.869Z,54.84
2022-09-04T00:55:48.617Z,55.24
2022-09-04T01:00:49.434Z,55.37
2022-09-04T01:05:50.141Z,55.47
2022-09-04T01:10:51.058Z,55.57
2022-09-04T01:15:51.822Z,55.77
2022-09-04T01:20:52.566Z,55.57
2022-09-04T01:25:53.356Z,55.47
2022-09-04T01:30:54.081Z,55.47
2022-09-04T01:35:54.810Z,55.57
2022-09-04T01:40:55.599Z,55.80
2022-09-04T01:45:56.423Z,55.70
2022-09-04T01:50:57.161Z,55.70
2022-09-04T01:55:58.121Z,55.90
2022-09-04T02:00:59.005Z,56.01
2022-09-04T02:05:59.477Z,56.13
2022-09-04T02:11:00.173Z,56.13
2022-09-04T02:16:01.062Z,56.23
2022-09-04T02:21:01.777Z,56.64
2022-09-04T02:26:02.524Z,56.67
2022-09-04T02:31:03.271Z,56.87
2022-09-04T02:36:04.036Z,56.87
2022-09-04T02:41:04.802Z,56.87
2022-09-04T02:46:05.495Z,56.97
2022-09-04T02:51:06.218Z,56.97
2022-09-04T02:56:06.967Z,57.28
2022-09-04T03:01:08.917Z,57.20
2022-09-04T03:06:08.700Z,57.20
2022-09-04T03:11:09.404Z,57.40
2022-09-04T03:16:10.280Z,57.71
2022-09-04T03:21:11.045Z,58.04
2022-09-04T03:26:11.740Z,58.04
2022-09-04T03:31:12.535Z,58.34
2022-09-04T03:36:13.254Z,58.45
2022-09-04T03:41:13.993Z,58.58
2022-09-04T03:46:14.662Z,58.58
2022-09-04T03:51:22.338Z,58.88
2022-09-04T03:56:16.014Z,59.18
2022-09-04T04:01:16.883Z,59.11
2022-09-04T04:06:17.194Z,59.31
2022-09-04T04:11:17.902Z,59.72
2022-09-04T04:16:24.568Z,59.82
2022-09-04T04:21:20.143Z,59.72
2022-09-04T04:26:19.822Z,59.95
2022-09-04T04:31:20.569Z,60.25
2022-09-04T04:36:21.252Z,60.25
2022-09-04T04:41:21.942Z,60.36
2022-09-04T04:46:22.700Z,60.56
2022-09-04T04:51:23.333Z,60.46
2022-09-04T04:56:24.025Z,60.66
2022-09-04T05:01:24.745Z,60.66
2022-09-04T05:06:25.417Z,60.46
2022-09-04T05:11:26.090Z,60.15
2022-09-04T05:16:26.804Z,59.72
2022-09-04T05:21:27.447Z,59.21
2022-09-04T05:26:28.131Z,58.98
2022-09-04T05:31:28.924Z,58.98
2022-09-04T05:36:29.683Z,58.47
2022-09-04T05:41:30.373Z,58.47
2022-09-04T05:46:31.149Z,58.58
2022-09-04T05:51:31.949Z,58.65
2022-09-04T05:56:32.619Z,58.54
2022-09-04T06:01:33.331Z,58.45
2022-09-04T06:06:34.008Z,58.45
2022-09-04T06:11:34.686Z,58.31
2022-09-04T06:16:35.403Z,58.22
2022-09-04T06:21:36.077Z,58.18
2022-09-04T06:26:36.820Z,57.98
2022-09-04T06:31:37.651Z,57.86
2022-09-04T06:36:38.317Z,58.06
2022-09-04T06:41:39.018Z,57.96
2022-09-04T06:46:39.731Z,57.83
2022-09-04T06:51:40.394Z,57.20
2022-09-04T06:56:41.088Z,57.27
2022-09-04T07:01:41.866Z,56.86
2022-09-04T07:06:42.575Z,57.27
2022-09-04T07:11:43.262Z,58.07
2022-09-04T07:16:43.946Z,57.24
2022-09-04T07:21:44.614Z,57.65
2022-09-04T07:26:45.301Z,57.42
2022-09-04T07:31:46.172Z,57.31
2022-09-04T07:36:46.822Z,57.69
2022-09-04T07:41:47.501Z,57.16
2022-09-04T07:46:48.199Z,56.32
2022-09-04T07:51:48.884Z,56.43
2022-09-04T07:56:49.558Z,56.27
2022-09-04T08:01:50.353Z,55.94
2022-09-04T08:06:51.055Z,55.82
2022-09-04T08:11:51.747Z,56.35
2022-09-04T08:16:53.335Z,56.12
2022-09-04T08:21:53.221Z,55.66
2022-09-04T08:26:53.880Z,55.26
2022-09-04T08:31:54.681Z,55.33
2022-09-04T08:36:55.321Z,54.91
2022-09-04T08:41:56.009Z,53.67
2022-09-04T08:46:56.689Z,53.65
2022-09-04T08:51:57.350Z,53.52
2022-09-04T08:56:58.059Z,51.79
2022-09-04T09:01:58.821Z,52.29
2022-09-04T09:06:59.477Z,51.67
2022-09-04T09:12:00.150Z,50.21
2022-09-04T09:17:00.942Z,50.74
2022-09-04T09:22:01.613Z,49.61
2022-09-04T09:27:02.640Z,49.29
2022-09-04T09:32:03.990Z,48.57
2022-09-04T09:37:03.327Z,48.57
2022-09-04T09:42:04.011Z,48.69
2022-09-04T09:47:04.677Z,48.26
2022-09-04T09:52:12.393Z,48.36
2022-09-04T09:57:08.093Z,47.74
2022-09-04T10:02:06.792Z,47.04
2022-09-04T10:07:07.636Z,47.34
2022-09-04T10:12:08.461Z,46.72
2022-09-04T10:17:09.113Z,47.11
2022-09-04T10:22:09.879Z,46.72
2022-09-04T10:27:10.594Z,46.42
2022-09-04T10:32:11.326Z,45.79
2022-09-04T10:37:12.062Z,45.89
2022-09-04T10:42:12.831Z,45.47
2022-09-04T10:47:13.525Z,44.97
2022-09-04T10:52:14.202Z,44.57
2022-09-04T10:57:15.027Z,44.25
2022-09-04T11:02:15.890Z,43.11
2022-09-04T11:07:16.621Z,43.13
2022-09-04T11:12:17.297Z,42.81
2022-09-04T11:17:17.962Z,43.13
2022-09-04T11:22:18.998Z,42.71
2022-09-04T11:27:19.933Z,43.59
2022-09-04T11:32:21.460Z,43.39
2022-09-04T11:37:21.154Z,42.37
2022-09-04T11:42:21.933Z,42.25
2022-09-04T11:47:23.617Z,43.07
2022-09-04T11:52:23.267Z,42.57
2022-09-04T11:57:23.989Z,42.10
2022-09-04T12:02:24.934Z,42.61
2022-09-04T12:07:25.077Z,42.59
2022-09-04T12:12:26.087Z,42.55
2022-09-04T12:17:26.681Z,41.97
2022-09-04T12:22:27.930Z,42.18
2022-09-04T12:27:28.243Z,42.15
2022-09-04T12:32:28.875Z,42.05
2022-09-04T12:37:29.789Z,41.75
2022-09-04T12:42:30.614Z,41.96
2022-09-04T12:47:31.606Z,41.83
2022-09-04T12:52:31.871Z,41.58
2022-09-04T12:57:32.666Z,41.14
2022-09-04T13:02:33.606Z,39.72
2022-09-04T13:07:34.027Z,39.62
2022-09-04T13:12:34.733Z,38.61
2022-09-04T13:17:35.403Z,38.11
2022-09-04T13:22:36.371Z,39.01
2022-09-04T13:27:37.665Z,38.01
2022-09-04T13:32:37.877Z,36.90
2022-09-04T13:37:38.694Z,36.93
2022-09-04T13:42:39.514Z,36.74
2022-09-04T13:47:40.368Z,36.21
2022-09-04T13:52:41.259Z,35.47
2022-09-04T13:57:42.124Z,34.68
2022-09-04T14:02:42.865Z,35.22
2022-09-04T14:07:45.271Z,36.44
2022-09-04T14:12:46.630Z,35.72
2022-09-04T14:17:45.713Z,36.12
2022-09-04T14:22:45.529Z,36.24
2022-09-04T14:27:46.189Z,36.32
2022-09-04T14:32:46.988Z,35.82
2022-09-04T14:37:47.759Z,36.02
2022-09-04T14:42:48.650Z,36.44
2022-09-04T14:47:49.537Z,35.80
2022-09-04T14:52:50.276Z,36.32
2022-09-04T14:57:51.016Z,37.04
2022-09-04T15:02:51.717Z,36.32
2022-09-04T15:07:52.497Z,36.65
2022-09-04T15:12:54.581Z,37.04
2022-09-04T15:17:53.836Z,36.83
2022-09-04T15:22:54.707Z,37.37
2022-09-04T15:27:55.513Z,37.57
2022-09-04T15:32:56.226Z,37.29
2022-09-04T15:38:00.321Z,38.09
2022-09-04T15:42:58.649Z,38.48
2022-09-04T15:47:58.321Z,38.20
2022-09-04T15:52:59.058Z,38.40
2022-09-04T15:57:59.747Z,38.20
2022-09-04T16:03:00.579Z,38.40
2022-09-04T16:08:02.372Z,38.92
2022-09-04T16:13:01.757Z,38.92
2022-09-04T16:18:02.700Z,38.62
2022-09-04T16:23:03.361Z,38.74
2022-09-04T16:28:04.023Z,39.04
2022-09-04T16:33:12.904Z,39.02
2022-09-04T16:43:59.783Z,39.94
2022-09-04T16:48:55.998Z,40.16
2022-09-04T16:53:56.731Z,40.16
2022-09-04T16:58:58.500Z,40.45
2022-09-04T17:04:13.799Z,40.67
2022-09-04T17:08:59.788Z,41.17
2022-09-04T17:13:59.591Z,41.77
2022-09-04T17:19:01.123Z,41.39
2022-09-04T17:29:00.565Z,41.69
2022-09-04T17:29:29.638Z,41.99
2022-09-04T17:40:42.385Z,42.61
2022-09-04T17:40:50.298Z,43.41
2022-09-04T17:44:04.125Z,43.54
2022-09-04T17:49:03.797Z,44.06
2022-09-04T17:54:04.454Z,44.35
2022-09-04T17:59:05.210Z,44.78
2022-09-04T18:04:21.863Z,44.88
2022-09-04T18:09:07.415Z,45.30
2022-09-04T18:14:07.130Z,45.60
2022-09-04T18:19:07.849Z,45.80
2022-09-04T18:24:08.538Z,46.12
2022-09-04T18:29:56.845Z,46.53
2022-09-04T18:37:23.851Z,46.73
2022-09-04T18:39:11.589Z,46.95
2022-09-04T18:50:20.428Z,47.25
2022-09-04T18:50:51.000Z,47.45
2022-09-04T18:54:13.555Z,47.88
2022-09-04T18:59:13.289Z,48.08
2022-09-04T19:04:19.470Z,48.38
2022-09-04T19:09:15.687Z,48.70
2022-09-04T19:14:15.433Z,48.80
2022-09-04T19:19:17.567Z,49.10
2022-09-04T19:24:17.023Z,49.33
2022-09-04T19:29:18.822Z,49.63
2022-09-04T19:34:18.589Z,49.83
2022-09-04T19:45:56.029Z,49.95
2022-09-04T19:46:16.654Z,50.35
2022-09-04T19:51:30.875Z,50.46
2022-09-04T19:54:22.136Z,50.66
2022-09-04T19:59:21.838Z,51.18
2022-09-04T20:04:22.643Z,51.09
2022-09-04T20:09:23.349Z,51.29
2022-09-04T20:14:24.085Z,51.61
2022-09-04T20:19:28.563Z,51.61
2022-09-04T20:24:25.523Z,51.61
2022-09-04T20:29:26.250Z,51.51
2022-09-04T20:34:26.988Z,51.81
2022-09-04T20:39:27.766Z,51.93
2022-09-04T20:44:28.507Z,52.14
2022-09-04T20:52:48.681Z,52.14
2022-09-04T20:54:30.867Z,52.34
2022-09-04T21:03:14.434Z,52.47
2022-09-04T21:04:43.252Z,52.57
2022-09-04T21:09:32.741Z,52.77
2022-09-04T21:14:45.902Z,52.97
2022-09-04T21:19:34.118Z,53.20
2022-09-04T21:24:33.843Z,53.40
2022-09-04T21:29:34.562Z,53.50
2022-09-04T21:34:41.715Z,53.60
2022-09-04T21:39:36.893Z,53.83
2022-09-04T21:44:36.600Z,54.03
2022-09-04T21:49:37.323Z,54.03
2022-09-04T21:57:14.953Z,54.13
2022-09-04T22:02:43.612Z,54.23
2022-09-04T22:04:42.437Z,54.36
2022-09-04T22:13:29.893Z,54.66
2022-09-04T22:14:41.714Z,54.86
2022-09-04T22:19:41.450Z,55.06
2022-09-04T22:24:42.176Z,54.99
2022-09-04T22:29:42.888Z,55.29
2022-09-04T22:34:43.627Z,55.39
2022-09-04T22:39:53.553Z,55.59
2022-09-04T22:44:45.220Z,55.59
2022-09-04T22:49:47.004Z,55.82
2022-09-04T22:54:46.726Z,56.12
2022-09-04T22:59:47.617Z,56.43
2022-09-04T23:04:48.349Z,56.56
2022-09-04T23:13:49.354Z,56.85
2022-09-04T23:14:50.684Z,56.85
2022-09-04T23:26:31.311Z,57.06
2022-09-04T23:26:44.302Z,56.96
2022-09-04T23:29:52.637Z,57.16
2022-09-04T23:35:13.985Z,57.39
2022-09-04T23:39:54.157Z,57.49
2022-09-04T23:44:53.855Z,57.59
2022-09-04T23:49:54.656Z,57.79
2022-09-04T23:54:55.503Z,57.89
2022-09-04T23:59:56.320Z,58.23
